createdAt,value
2022-11-14T00:03:10.460Z,68.10
2022-11-14T00:07:12.494Z,68.80
2022-11-14T00:11:14.366Z,69.20
2022-11-14T00:15:16.222Z,69.00
2022-11-14T00:19:18.093Z,69.00
2022-11-14T00:23:21.358Z,68.40
2022-11-14T00:27:23.293Z,67.40
2022-11-14T00:31:25.345Z,69.00
2022-11-14T00:35:27.161Z,67.10
2022-11-14T00:39:29.008Z,67.50
2022-11-14T00:43:30.890Z,67.50
2022-11-14T00:47:32.669Z,68.30
2022-11-14T00:51:34.516Z,68.90
2022-11-14T00:55:36.367Z,68.40
2022-11-14T00:59:38.157Z,68.90
2022-11-14T01:03:40.012Z,68.90
2022-11-14T01:07:41.886Z,69.60
2022-11-14T01:11:43.718Z,68.50
2022-11-14T01:15:47.973Z,68.80
2022-11-14T01:19:49.865Z,68.80
2022-11-14T01:23:51.715Z,67.80
2022-11-14T01:27:53.594Z,67.80
2022-11-14T01:31:55.704Z,67.10
2022-11-14T01:36:00.223Z,66.60
2022-11-14T01:40:02.026Z,67.10
2022-11-14T01:44:05.470Z,68.40
2022-11-14T01:48:37.564Z,68.90
2022-11-14T01:52:41.353Z,68.50
2022-11-14T01:56:54.988Z,70.10
2022-11-14T02:00:57.998Z,70.40
2022-11-14T02:05:14.686Z,70.10
2022-11-14T02:09:16.767Z,70.80
2022-11-14T02:13:18.657Z,72.30
2022-11-14T02:17:29.987Z,69.80
2022-11-14T02:21:32.610Z,68.60
2022-11-14T02:25:34.489Z,67.70
2022-11-14T02:29:36.524Z,68.60
2022-11-14T02:33:38.325Z,67.60
2022-11-14T02:37:40.165Z,68.60
2022-11-14T02:41:42.161Z,68.70
2022-11-14T02:45:44.034Z,67.90
2022-11-14T02:49:45.852Z,67.30
2022-11-14T02:53:47.699Z,66.70
2022-11-14T02:57:49.547Z,66.50
2022-11-14T03:01:51.469Z,69.30
2022-11-14T03:05:53.582Z,67.00
2022-11-14T03:09:55.409Z,66.30
2022-11-14T03:13:57.283Z,66.60
2022-11-14T03:17:59.073Z,67.60
2022-11-14T03:22:00.922Z,67.90
2022-11-14T03:26:05.126Z,68.10
2022-11-14T03:30:07.569Z,69.10
2022-11-14T03:34:10.806Z,68.70
2022-11-14T03:38:12.633Z,69.70
2022-11-14T03:42:14.470Z,69.00
2022-11-14T03:46:16.313Z,68.80
2022-11-14T03:50:18.250Z,68.40
2022-11-14T03:54:20.116Z,68.30
2022-11-14T03:58:22.004Z,68.60
2022-11-14T04:02:23.892Z,68.40
2022-11-14T04:06:25.742Z,68.00
2022-11-14T04:10:27.654Z,68.00
2022-11-14T04:14:29.559Z,68.40
2022-11-14T04:18:31.655Z,67.90
2022-11-14T04:22:33.737Z,68.20
2022-11-14T04:26:35.592Z,68.70
2022-11-14T04:30:37.500Z,68.20
2022-11-14T04:34:39.337Z,66.50
2022-11-14T04:38:41.210Z,66.00
2022-11-14T04:42:43.060Z,65.90
2022-11-14T04:46:45.111Z,65.00
2022-11-14T04:50:47.040Z,65.10
2022-11-14T04:54:48.852Z,65.30
2022-11-14T04:58:50.949Z,65.60
2022-11-14T05:02:52.759Z,65.70
2022-11-14T05:06:54.658Z,66.50
2022-11-14T05:10:56.650Z,65.40
2022-11-14T05:14:58.466Z,65.10
2022-11-14T05:19:00.401Z,65.20
2022-11-14T05:23:02.245Z,65.20
2022-11-14T05:27:04.093Z,64.80
2022-11-14T05:31:08.272Z,64.10
2022-11-14T05:35:10.189Z,64.00
2022-11-14T05:39:12.058Z,63.70
2022-11-14T05:43:13.856Z,63.90
2022-11-14T05:47:15.693Z,65.60
2022-11-14T05:51:17.592Z,64.50
2022-11-14T05:55:24.391Z,63.90
2022-11-14T05:59:27.496Z,63.10
2022-11-14T06:03:37.998Z,63.50
2022-11-14T06:07:39.876Z,63.60
2022-11-14T06:11:41.766Z,65.10
2022-11-14T06:15:43.592Z,64.40
2022-11-14T06:19:45.450Z,66.00
2022-11-14T06:23:48.045Z,65.70
2022-11-14T06:27:49.890Z,66.50
2022-11-14T06:31:51.748Z,64.50
2022-11-14T06:36:05.118Z,65.10
2022-11-14T06:40:07.705Z,64.50
2022-11-14T06:44:09.583Z,65.90
2022-11-14T06:48:11.409Z,64.60
2022-11-14T06:52:13.273Z,63.30
2022-11-14T06:56:17.109Z,65.20
2022-11-14T07:00:19.253Z,65.10
2022-11-14T07:04:21.035Z,65.50
2022-11-14T07:08:22.937Z,62.70
2022-11-14T07:12:24.803Z,64.00
2022-11-14T07:16:32.242Z,65.40
2022-11-14T07:20:34.025Z,65.50
2022-11-14T07:24:35.840Z,61.40
2022-11-14T07:28:41.096Z,62.80
2022-11-14T07:32:42.965Z,61.00
2022-11-14T07:36:45.246Z,57.10
2022-11-14T07:41:06.796Z,55.70
2022-11-14T07:45:09.449Z,54.20
2022-11-14T07:49:11.278Z,53.70
2022-11-14T07:53:13.368Z,53.20
2022-11-14T07:57:15.218Z,52.20
2022-11-14T08:01:17.103Z,51.30
2022-11-14T08:05:18.985Z,50.30
2022-11-14T08:09:20.802Z,50.10
2022-11-14T08:13:32.026Z,49.40
2022-11-14T08:17:34.583Z,49.90
2022-11-14T08:21:36.804Z,49.70
2022-11-14T08:25:38.658Z,50.10
2022-11-14T08:29:40.475Z,49.20
2022-11-14T08:33:42.417Z,49.40
2022-11-14T08:37:44.327Z,49.80
2022-11-14T08:41:46.160Z,50.20
2022-11-14T08:45:48.023Z,49.10
2022-11-14T08:49:49.867Z,48.90
2022-11-14T08:53:52.570Z,49.10
2022-11-14T08:57:54.908Z,48.80
2022-11-14T09:01:56.728Z,48.00
2022-11-14T09:05:58.974Z,47.70
2022-11-14T09:10:00.893Z,47.70
2022-11-14T09:14:02.875Z,48.10
2022-11-14T09:18:04.728Z,48.10
2022-11-14T09:22:06.566Z,48.30
2022-11-14T09:26:09.870Z,47.90
2022-11-14T09:30:12.778Z,48.60
2022-11-14T09:34:14.863Z,49.30
2022-11-14T09:38:16.728Z,48.80
2022-11-14T09:42:27.358Z,48.00
2022-11-14T09:46:39.209Z,47.70
2022-11-14T09:50:47.070Z,48.60
2022-11-14T09:55:02.787Z,49.50
2022-11-14T09:59:09.196Z,48.30
2022-11-14T10:03:16.650Z,48.60
2022-11-14T10:07:34.853Z,48.60
2022-11-14T10:11:43.746Z,49.10
2022-11-14T10:15:51.409Z,49.40
2022-11-14T10:20:03.695Z,49.30
2022-11-14T10:24:09.556Z,50.10
2022-11-14T10:28:29.883Z,50.20
2022-11-14T10:32:53.712Z,50.40
2022-11-14T10:36:58.498Z,50.00
2022-11-14T10:41:06.827Z,49.90
2022-11-14T10:45:34.825Z,48.80
2022-11-14T10:49:37.712Z,49.40
2022-11-14T10:54:00.330Z,50.60
2022-11-14T10:58:02.341Z,49.10
2022-11-14T11:02:04.197Z,49.30
2022-11-14T11:06:06.199Z,46.60
2022-11-14T11:10:37.936Z,47.50
2022-11-14T11:14:40.036Z,45.60
2022-11-14T11:18:41.950Z,46.00
2022-11-14T11:22:43.758Z,46.80
2022-11-14T11:26:45.634Z,45.30
2022-11-14T11:31:05.526Z,45.20
2022-11-14T11:35:15.991Z,44.30
2022-11-14T11:39:26.629Z,45.90
2022-11-14T11:43:38.825Z,44.30
2022-11-14T11:47:43.082Z,44.50
2022-11-14T11:51:46.516Z,44.50
2022-11-14T11:55:56.501Z,43.30
2022-11-14T12:00:21.336Z,43.70
2022-11-14T12:04:23.224Z,43.50
2022-11-14T12:08:49.829Z,43.20
2022-11-14T12:13:12.257Z,43.90
2022-11-14T12:17:27.150Z,43.50
2022-11-14T12:21:47.780Z,44.10
2022-11-14T12:25:49.641Z,44.50
2022-11-14T12:30:31.129Z,44.60
2022-11-14T12:34:40.020Z,44.80
2022-11-14T12:38:49.341Z,43.70
2022-11-14T12:42:51.743Z,43.50
2022-11-14T12:47:13.546Z,43.80
2022-11-14T12:51:27.629Z,44.60
2022-11-14T12:55:29.485Z,43.90
2022-11-14T12:59:49.296Z,45.50
2022-11-14T13:04:17.241Z,49.00
2022-11-14T13:08:43.733Z,49.40
2022-11-14T13:13:29.315Z,49.20
2022-11-14T13:17:49.884Z,49.30
2022-11-14T13:22:32.437Z,49.90
2022-11-14T13:26:34.238Z,48.40
2022-11-14T13:31:18.313Z,49.10
2022-11-14T13:36:05.820Z,49.30
2022-11-14T13:40:22.841Z,49.10
2022-11-14T13:44:27.399Z,48.10
2022-11-14T13:48:58.832Z,47.80
2022-11-14T13:53:01.161Z,48.20
2022-11-14T13:57:26.455Z,48.50
2022-11-14T14:01:45.313Z,49.40
2022-11-14T14:06:25.217Z,49.80
2022-11-14T14:10:40.446Z,47.90
2022-11-14T14:15:08.665Z,48.60
2022-11-14T14:19:32.164Z,49.10
2022-11-14T14:23:52.710Z,50.70
2022-11-14T14:28:03.157Z,53.00
2022-11-14T14:32:13.865Z,55.00
2022-11-14T14:36:20.078Z,58.10
2022-11-14T14:40:29.350Z,58.80
2022-11-14T14:44:37.413Z,57.00
2022-11-14T14:48:40.661Z,57.50
2022-11-14T14:52:43.016Z,60.70
2022-11-14T14:57:00.022Z,60.30
2022-11-14T15:01:09.284Z,58.60
2022-11-14T15:05:11.848Z,61.00
2022-11-14T15:09:21.680Z,61.70
2022-11-14T15:13:25.283Z,65.50
2022-11-14T15:17:31.613Z,66.00
2022-11-14T15:21:36.452Z,64.90
2022-11-14T15:25:38.414Z,64.20
2022-11-14T15:29:48.865Z,63.90
2022-11-14T15:34:22.910Z,64.90
2022-11-14T15:42:47.178Z,66.30
2022-11-14T15:46:49.748Z,68.20
2022-11-14T15:50:51.715Z,70.30
2022-11-14T15:54:53.587Z,68.40
2022-11-14T15:58:55.527Z,69.50
2022-11-14T16:02:58.021Z,70.90
2022-11-14T16:07:00.414Z,72.80
2022-11-14T16:11:02.282Z,71.20
2022-11-14T16:15:04.584Z,70.40
2022-11-14T16:19:06.817Z,72.50
2022-11-14T16:23:12.353Z,72.90
2022-11-14T16:27:15.440Z,73.80
2022-11-14T16:31:18.004Z,74.00
2022-11-14T16:35:22.568Z,74.50
2022-11-14T16:39:24.476Z,75.00
2022-11-14T16:43:26.332Z,74.40
2022-11-14T16:47:28.679Z,75.50
2022-11-14T16:51:47.626Z,75.70
2022-11-14T16:55:51.079Z,74.60
2022-11-14T16:59:52.939Z,74.30
2022-11-14T17:03:56.795Z,71.90
2022-11-14T17:07:58.657Z,71.40
2022-11-14T17:12:00.499Z,70.90
2022-11-14T17:16:03.349Z,71.10
2022-11-14T17:20:05.803Z,72.30
2022-11-14T17:24:09.347Z,71.90
2022-11-14T17:28:11.160Z,75.10
2022-11-14T17:32:12.981Z,77.10
2022-11-14T17:36:14.934Z,76.40
2022-11-14T17:40:17.128Z,75.80
2022-11-14T17:44:19.060Z,74.60
2022-11-14T17:48:20.917Z,73.30
2022-11-14T17:52:22.938Z,74.00
2022-11-14T17:56:26.262Z,75.40
2022-11-14T18:00:28.066Z,74.20
2022-11-14T18:04:31.918Z,72.30
2022-11-14T18:08:35.147Z,72.10
2022-11-14T18:12:37.183Z,73.50
2022-11-14T18:17:05.552Z,75.20
2022-11-14T18:21:15.438Z,76.60
2022-11-14T18:25:17.396Z,76.90
2022-11-14T18:29:19.321Z,77.60
2022-11-14T18:33:21.185Z,77.40
2022-11-14T18:37:23.472Z,76.60
2022-11-14T18:41:25.346Z,77.40
2022-11-14T18:45:27.193Z,78.90
2022-11-14T18:49:29.016Z,79.70
2022-11-14T18:53:32.885Z,78.80
2022-11-14T18:57:34.877Z,78.30
2022-11-14T19:01:37.079Z,79.00
2022-11-14T19:05:38.987Z,79.30
2022-11-14T19:09:41.019Z,80.50
2022-11-14T19:13:42.908Z,81.30
2022-11-14T19:17:47.579Z,80.60
2022-11-14T19:21:52.438Z,79.50
2022-11-14T19:26:01.659Z,79.60
2022-11-14T19:30:03.682Z,78.90
2022-11-14T19:34:05.974Z,79.60
2022-11-14T19:38:07.827Z,79.70
2022-11-14T19:42:09.677Z,80.90
2022-11-14T19:46:11.641Z,82.70
2022-11-14T19:50:15.675Z,82.90
2022-11-14T19:54:17.991Z,83.30
2022-11-14T19:58:19.820Z,85.00
2022-11-14T20:02:21.944Z,86.60
2022-11-14T20:06:35.629Z,85.80
2022-11-14T20:10:47.880Z,85.90
2022-11-14T20:14:49.857Z,85.30
2022-11-14T20:18:58.848Z,85.70
2022-11-14T20:23:01.373Z,86.30
2022-11-14T20:27:03.253Z,88.00
2022-11-14T20:31:07.724Z,89.80
2022-11-14T20:35:09.634Z,89.60
2022-11-14T20:39:11.478Z,88.60
2022-11-14T20:43:13.343Z,86.30
2022-11-14T20:47:15.319Z,85.60
2022-11-14T20:51:23.102Z,87.60
2022-11-14T20:55:25.058Z,90.00
2022-11-14T20:59:26.924Z,90.30
2022-11-14T21:03:29.217Z,89.70
2022-11-14T21:07:31.254Z,89.00
2022-11-14T21:11:33.114Z,89.00
2022-11-14T21:15:35.277Z,88.20
2022-11-14T21:19:37.120Z,86.80
2022-11-14T21:23:39.325Z,87.70
2022-11-14T21:27:41.129Z,88.10
2022-11-14T21:31:46.845Z,87.90
2022-11-14T21:35:48.700Z,86.90
2022-11-14T21:39:50.589Z,87.80
2022-11-14T21:43:57.105Z,88.90
2022-11-14T21:47:58.956Z,87.00
2022-11-14T21:52:00.797Z,89.40
2022-11-14T21:56:17.592Z,91.60
2022-11-14T22:00:19.539Z,91.20
2022-11-14T22:04:22.760Z,90.80
2022-11-14T22:08:24.592Z,92.00
2022-11-14T22:12:26.459Z,92.00
2022-11-14T22:16:28.252Z,92.50
2022-11-14T22:20:30.082Z,91.80
2022-11-14T22:24:31.917Z,90.70
2022-11-14T22:28:33.764Z,91.70
2022-11-14T22:32:35.614Z,92.60
2022-11-14T22:36:37.539Z,92.80
2022-11-14T22:40:39.428Z,93.00
2022-11-14T22:44:41.258Z,92.60
2022-11-14T22:48:44.184Z,94.50
2022-11-14T22:52:46.010Z,94.40
2022-11-14T22:56:48.051Z,94.10
2022-11-14T23:00:50.514Z,94.00
2022-11-14T23:04:52.403Z,93.40
2022-11-14T23:08:54.490Z,93.30
2022-11-14T23:12:56.504Z,93.10
2022-11-14T23:16:58.458Z,92.70
2022-11-14T23:21:21.083Z,92.20
2022-11-14T23:25:24.102Z,93.50
2022-11-14T23:29:25.962Z,93.00
2022-11-14T23:33:28.537Z,94.00
2022-11-14T23:37:30.614Z,94.60
2022-11-14T23:41:32.483Z,92.90
2022-11-14T23:45:34.379Z,92.40
2022-11-14T23:49:36.248Z,92.20
2022-11-14T23:53:38.120Z,92.70
2022-11-14T23:57:40.013Z,92.30
